sensor_id;sensor_type;location;lat;lon;timestamp;pressure;altitude;pressure_sealevel;temperature;humidity
72423;BME280;60413;55.658;37.498;2022-08-01T00:02:19;99144.13;;;17.15;100.00
72423;BME280;60413;55.658;37.498;2022-08-01T00:04:45;99166.38;;;17.30;100.00
72423;BME280;60413;55.658;37.498;2022-08-01T00:07:11;99155.72;;;17.30;100.00
72423;BME280;60413;55.658;37.498;2022-08-01T00:09:36;99112.00;;;17.07;100.00
72423;BME280;60413;55.658;37.498;2022-08-01T00:12:02;99122.03;;;17.15;100.00
72423;BME280;60413;55.658;37.498;2022-08-01T00:14:30;99136.41;;;17.14;100.00
72423;BME280;60413;55.658;37.498;2022-08-01T00:16:56;99137.13;;;17.25;100.00
72423;BME280;60413;55.658;37.498;2022-08-01T00:19:22;99141.88;;;17.28;100.00
72423;BME280;60413;55.658;37.498;2022-08-01T00:21:47;99123.69;;;17.06;100.00
72423;BME280;60413;55.658;37.498;2022-08-01T00:24:13;99126.84;;;17.13;100.00
72423;BME280;60413;55.658;37.498;2022-08-01T00:26:41;99130.25;;;17.18;100.00
72423;BME280;60413;55.658;37.498;2022-08-01T00:29:07;99119.13;;;17.11;100.00
72423;BME280;60413;55.658;37.498;2022-08-01T00:31:33;99127.69;;;17.08;100.00
72423;BME280;60413;55.658;37.498;2022-08-01T00:33:58;99149.97;;;17.17;100.00
72423;BME280;60413;55.658;37.498;2022-08-01T00:36:24;99157.66;;;17.24;100.00
72423;BME280;60413;55.658;37.498;2022-08-01T00:38:50;99125.16;;;16.93;100.00
72423;BME280;60413;55.658;37.498;2022-08-01T00:41:16;99120.84;;;16.97;100.00
72423;BME280;60413;55.658;37.498;2022-08-01T00:43:42;99122.72;;;16.96;100.00
72423;BME280;60413;55.658;37.498;2022-08-01T00:46:07;99144.97;;;17.11;100.00
72423;BME280;60413;55.658;37.498;2022-08-01T00:48:33;99151.59;;;17.13;100.00
72423;BME280;60413;55.658;37.498;2022-08-01T00:50:59;99139.97;;;17.04;100.00
72423;BME280;60413;55.658;37.498;2022-08-01T00:53:25;99144.50;;;17.03;100.00
72423;BME280;60413;55.658;37.498;2022-08-01T00:55:51;99135.00;;;16.97;100.00
72423;BME280;60413;55.658;37.498;2022-08-01T00:58:17;99146.94;;;17.00;100.00
72423;BME280;60413;55.658;37.498;2022-08-01T01:00:42;99133.44;;;16.91;100.00
72423;BME280;60413;55.658;37.498;2022-08-01T01:03:08;99124.41;;;16.87;100.00
72423;BME280;60413;55.658;37.498;2022-08-01T01:05:45;99162.91;;;17.00;100.00
72423;BME280;60413;55.658;37.498;2022-08-01T01:08:19;99090.81;;;16.57;100.00
72423;BME280;60413;55.658;37.498;2022-08-01T01:10:54;99091.91;;;16.56;100.00
72423;BME280;60413;55.658;37.498;2022-08-01T01:13:38;99121.13;;;16.61;100.00
72423;BME280;60413;55.658;37.498;2022-08-01T01:16:12;99111.84;;;16.58;100.00
72423;BME280;60413;55.658;37.498;2022-08-01T01:24:27;99143.59;;;16.84;100.00
72423;BME280;60413;55.658;37.498;2022-08-01T01:29:40;99151.50;;;16.94;100.00
72423;BME280;60413;55.658;37.498;2022-08-01T01:32:31;99128.44;;;16.79;100.00
72423;BME280;60413;55.658;37.498;2022-08-01T01:35:01;99139.31;;;16.83;100.00
72423;BME280;60413;55.658;37.498;2022-08-01T01:37:32;99153.94;;;16.91;100.00
72423;BME280;60413;55.658;37.498;2022-08-01T01:40:00;99136.44;;;16.79;100.00
72423;BME280;60413;55.658;37.498;2022-08-01T01:42:29;99154.50;;;16.88;100.00
72423;BME280;60413;55.658;37.498;2022-08-01T01:44:58;99133.59;;;16.65;100.00
72423;BME280;60413;55.658;37.498;2022-08-01T01:47:27;99124.06;;;16.59;100.00
72423;BME280;60413;55.658;37.498;2022-08-01T01:49:54;99112.19;;;16.46;100.00
72423;BME280;60413;55.658;37.498;2022-08-01T01:52:22;99133.38;;;16.57;100.00
72423;BME280;60413;55.658;37.498;2022-08-01T01:54:52;99098.41;;;16.39;100.00
72423;BME280;60413;55.658;37.498;2022-08-01T01:57:19;99136.94;;;16.87;100.00
72423;BME280;60413;55.658;37.498;2022-08-01T01:59:47;99166.50;;;17.14;100.00
72423;BME280;60413;55.658;37.498;2022-08-01T02:02:16;99100.13;;;16.94;100.00
72423;BME280;60413;55.658;37.498;2022-08-01T02:04:44;99138.56;;;17.41;100.00
72423;BME280;60413;55.658;37.498;2022-08-01T02:07:13;99121.41;;;17.47;100.00
72423;BME280;60413;55.658;37.498;2022-08-01T02:09:41;99111.97;;;17.79;100.00
72423;BME280;60413;55.658;37.498;2022-08-01T02:12:10;99153.66;;;18.56;100.00
72423;BME280;60413;55.658;37.498;2022-08-01T02:14:38;99155.28;;;18.90;100.00
72423;BME280;60413;55.658;37.498;2022-08-01T02:17:11;99114.56;;;18.98;100.00
72423;BME280;60413;55.658;37.498;2022-08-01T02:19:37;99152.63;;;19.51;100.00
72423;BME280;60413;55.658;37.498;2022-08-01T02:22:10;99146.47;;;19.64;100.00
72423;BME280;60413;55.658;37.498;2022-08-01T02:24:40;99120.44;;;19.56;100.00
72423;BME280;60413;55.658;37.498;2022-08-01T02:27:10;99140.44;;;20.00;100.00
72423;BME280;60413;55.658;37.498;2022-08-01T02:29:48;99147.38;;;20.15;100.00
72423;BME280;60413;55.658;37.498;2022-08-01T02:32:25;99134.00;;;20.15;100.00
72423;BME280;60413;55.658;37.498;2022-08-01T02:34:53;99132.75;;;20.21;100.00
72423;BME280;60413;55.658;37.498;2022-08-01T02:37:23;99155.88;;;20.53;100.00
72423;BME280;60413;55.658;37.498;2022-08-01T02:39:54;99121.91;;;20.04;100.00
72423;BME280;60413;55.658;37.498;2022-08-01T02:42:22;99121.31;;;19.10;100.00
72423;BME280;60413;55.658;37.498;2022-08-01T02:44:49;99119.72;;;18.43;100.00
72423;BME280;60413;55.658;37.498;2022-08-01T02:47:17;99132.19;;;18.09;100.00
72423;BME280;60413;55.658;37.498;2022-08-01T02:49:47;99139.69;;;17.83;100.00
72423;BME280;60413;55.658;37.498;2022-08-01T02:52:15;99106.97;;;17.53;100.00
72423;BME280;60413;55.658;37.498;2022-08-01T02:54:44;99132.84;;;17.53;100.00
72423;BME280;60413;55.658;37.498;2022-08-01T02:57:12;99142.41;;;17.54;100.00
72423;BME280;60413;55.658;37.498;2022-08-01T02:59:44;99136.41;;;17.43;100.00
72423;BME280;60413;55.658;37.498;2022-08-01T03:02:11;99130.28;;;17.43;100.00
72423;BME280;60413;55.658;37.498;2022-08-01T03:04:40;99108.03;;;17.28;100.00
72423;BME280;60413;55.658;37.498;2022-08-01T03:07:08;99117.59;;;17.34;100.00
72423;BME280;60413;55.658;37.498;2022-08-01T03:09:43;99137.66;;;17.51;100.00
72423;BME280;60413;55.658;37.498;2022-08-01T03:12:14;99153.97;;;17.68;100.00
72423;BME280;60413;55.658;37.498;2022-08-01T03:14:42;99135.28;;;17.49;100.00
72423;BME280;60413;55.658;37.498;2022-08-01T03:17:09;99121.41;;;17.47;100.00
72423;BME280;60413;55.658;37.498;2022-08-01T03:19:35;99113.72;;;17.46;100.00
72423;BME280;60413;55.658;37.498;2022-08-01T03:22:06;99137.31;;;17.57;100.00
72423;BME280;60413;55.658;37.498;2022-08-01T03:24:36;99129.81;;;17.59;100.00
72423;BME280;60413;55.658;37.498;2022-08-01T03:27:03;99105.28;;;17.63;100.00
72423;BME280;60413;55.658;37.498;2022-08-01T03:29:31;99148.94;;;17.91;100.00
72423;BME280;60413;55.658;37.498;2022-08-01T03:32:00;99116.75;;;17.82;100.00
72423;BME280;60413;55.658;37.498;2022-08-01T03:34:28;99122.03;;;17.87;100.00
72423;BME280;60413;55.658;37.498;2022-08-01T03:37:08;99141.19;;;19.03;100.00
72423;BME280;60413;55.658;37.498;2022-08-01T03:39:42;99118.91;;;20.78;100.00
72423;BME280;60413;55.658;37.498;2022-08-01T03:42:18;99117.81;;;22.17;100.00
72423;BME280;60413;55.658;37.498;2022-08-01T03:44:52;99131.66;;;23.45;100.00
72423;BME280;60413;55.658;37.498;2022-08-01T03:47:22;99097.19;;;23.98;100.00
72423;BME280;60413;55.658;37.498;2022-08-01T03:49:51;99138.88;;;24.76;100.00
72423;BME280;60413;55.658;37.498;2022-08-01T03:52:18;99126.81;;;25.19;100.00
72423;BME280;60413;55.658;37.498;2022-08-01T03:54:47;99117.50;;;25.04;100.00
72423;BME280;60413;55.658;37.498;2022-08-01T03:57:17;99106.69;;;25.17;100.00
72423;BME280;60413;55.658;37.498;2022-08-01T03:59:44;99090.44;;;25.50;100.00
72423;BME280;60413;55.658;37.498;2022-08-01T04:02:12;99120.78;;;25.72;99.29
72423;BME280;60413;55.658;37.498;2022-08-01T04:04:43;99112.56;;;26.33;98.04
72423;BME280;60413;55.658;37.498;2022-08-01T04:07:27;99133.97;;;26.54;98.15
72423;BME280;60413;55.658;37.498;2022-08-01T04:09:53;99113.41;;;26.21;98.54
72423;BME280;60413;55.658;37.498;2022-08-01T04:12:20;99121.59;;;26.53;97.52
72423;BME280;60413;55.658;37.498;2022-08-01T04:14:46;99110.50;;;26.71;94.90
72423;BME280;60413;55.658;37.498;2022-08-01T04:17:13;99104.34;;;27.02;92.79
72423;BME280;60413;55.658;37.498;2022-08-01T04:19:39;99100.41;;;27.15;91.71
72423;BME280;60413;55.658;37.498;2022-08-01T04:22:08;99139.13;;;27.20;95.12
72423;BME280;60413;55.658;37.498;2022-08-01T04:24:36;99100.25;;;27.08;88.91
72423;BME280;60413;55.658;37.498;2022-08-01T04:27:06;99129.91;;;27.21;91.51
72423;BME280;60413;55.658;37.498;2022-08-01T04:29:35;99143.00;;;27.18;90.45
72423;BME280;60413;55.658;37.498;2022-08-01T04:32:02;99128.63;;;26.70;94.51
72423;BME280;60413;55.658;37.498;2022-08-01T04:34:30;99140.47;;;27.26;91.18
72423;BME280;60413;55.658;37.498;2022-08-01T04:36:57;99112.34;;;26.98;88.51
72423;BME280;60413;55.658;37.498;2022-08-01T04:39:26;99136.34;;;27.00;91.56
72423;BME280;60413;55.658;37.498;2022-08-01T04:41:54;99133.00;;;26.75;93.57
72423;BME280;60413;55.658;37.498;2022-08-01T04:44:24;99128.97;;;27.29;90.91
72423;BME280;60413;55.658;37.498;2022-08-01T04:46:52;99127.91;;;28.20;87.58
72423;BME280;60413;55.658;37.498;2022-08-01T04:49:21;99115.19;;;28.05;84.39
72423;BME280;60413;55.658;37.498;2022-08-01T04:51:51;99118.16;;;27.80;85.10
72423;BME280;60413;55.658;37.498;2022-08-01T04:54:25;99100.81;;;27.65;86.05
72423;BME280;60413;55.658;37.498;2022-08-01T04:56:52;99127.34;;;27.60;85.44
72423;BME280;60413;55.658;37.498;2022-08-01T04:59:21;99135.13;;;26.82;92.80
72423;BME280;60413;55.658;37.498;2022-08-01T05:02:13;99153.22;;;26.65;94.92
72423;BME280;60413;55.658;37.498;2022-08-01T05:04:40;99160.84;;;26.35;97.58
72423;BME280;60413;55.658;37.498;2022-08-01T05:07:09;99128.63;;;26.42;96.89
72423;BME280;60413;55.658;37.498;2022-08-01T05:09:36;99153.53;;;26.35;98.24
72423;BME280;60413;55.658;37.498;2022-08-01T05:12:04;99147.00;;;26.36;97.29
72423;BME280;60413;55.658;37.498;2022-08-01T05:14:34;99126.59;;;25.86;98.50
72423;BME280;60413;55.658;37.498;2022-08-01T05:17:04;99099.28;;;25.75;100.00
72423;BME280;60413;55.658;37.498;2022-08-01T05:19:31;99097.81;;;25.90;97.76
72423;BME280;60413;55.658;37.498;2022-08-01T05:22:03;99104.78;;;25.79;98.87
72423;BME280;60413;55.658;37.498;2022-08-01T05:24:35;99124.53;;;26.20;95.49
72423;BME280;60413;55.658;37.498;2022-08-01T05:27:01;99153.50;;;25.95;99.27
72423;BME280;60413;55.658;37.498;2022-08-01T05:29:27;99119.69;;;25.48;97.92
72423;BME280;60413;55.658;37.498;2022-08-01T05:31:53;99113.56;;;25.76;97.59
72423;BME280;60413;55.658;37.498;2022-08-01T05:34:19;99125.72;;;25.57;98.39
72423;BME280;60413;55.658;37.498;2022-08-01T05:36:46;99127.06;;;25.88;98.59
72423;BME280;60413;55.658;37.498;2022-08-01T05:39:12;99143.25;;;26.00;97.95
72423;BME280;60413;55.658;37.498;2022-08-01T05:41:39;99144.56;;;26.19;96.59
72423;BME280;60413;55.658;37.498;2022-08-01T05:47:25;99108.34;;;27.08;88.36
72423;BME280;60413;55.658;37.498;2022-08-01T05:49:51;99132.50;;;26.57;90.75
72423;BME280;60413;55.658;37.498;2022-08-01T05:52:19;99137.75;;;26.37;92.62
72423;BME280;60413;55.658;37.498;2022-08-01T05:55:15;99141.34;;;26.41;92.05
72423;BME280;60413;55.658;37.498;2022-08-01T05:57:41;99114.56;;;26.65;92.10
72423;BME280;60413;55.658;37.498;2022-08-01T06:00:07;99145.69;;;27.03;87.70
72423;BME280;60413;55.658;37.498;2022-08-01T06:02:40;99106.03;;;27.74;85.09
72423;BME280;60413;55.658;37.498;2022-08-01T06:05:07;99119.78;;;27.85;85.36
72423;BME280;60413;55.658;37.498;2022-08-01T06:07:38;99103.38;;;28.13;85.77
72423;BME280;60413;55.658;37.498;2022-08-01T06:10:08;99119.63;;;28.13;86.08
72423;BME280;60413;55.658;37.498;2022-08-01T06:12:35;99097.13;;;28.52;83.43
72423;BME280;60413;55.658;37.498;2022-08-01T06:15:05;99123.59;;;28.00;86.94
72423;BME280;60413;55.658;37.498;2022-08-01T06:17:31;99122.22;;;27.54;89.44
72423;BME280;60413;55.658;37.498;2022-08-01T06:19:57;99148.94;;;27.08;91.56
72423;BME280;60413;55.658;37.498;2022-08-01T06:22:26;99131.97;;;27.75;91.17
72423;BME280;60413;55.658;37.498;2022-08-01T06:24:55;99102.81;;;27.68;90.74
72423;BME280;60413;55.658;37.498;2022-08-01T06:27:21;99119.97;;;27.76;89.70
72423;BME280;60413;55.658;37.498;2022-08-01T06:30:20;99146.44;;;27.83;90.64
72423;BME280;60413;55.658;37.498;2022-08-01T06:32:46;99102.19;;;27.75;92.10
72423;BME280;60413;55.658;37.498;2022-08-01T06:35:13;99098.53;;;28.22;89.11
72423;BME280;60413;55.658;37.498;2022-08-01T06:37:42;99126.13;;;29.36;81.27
72423;BME280;60413;55.658;37.498;2022-08-01T06:40:11;99113.38;;;28.91;83.71
72423;BME280;60413;55.658;37.498;2022-08-01T06:42:38;99118.00;;;29.63;82.26
72423;BME280;60413;55.658;37.498;2022-08-01T06:45:05;99117.38;;;29.47;79.81
72423;BME280;60413;55.658;37.498;2022-08-01T06:47:32;99132.25;;;29.56;79.08
72423;BME280;60413;55.658;37.498;2022-08-01T06:50:00;99122.88;;;28.81;85.77
72423;BME280;60413;55.658;37.498;2022-08-01T06:52:26;99109.66;;;27.46;90.28
72423;BME280;60413;55.658;37.498;2022-08-01T06:54:53;99102.22;;;27.27;94.21
72423;BME280;60413;55.658;37.498;2022-08-01T06:57:19;99143.00;;;28.21;89.77
72423;BME280;60413;55.658;37.498;2022-08-01T06:59:47;99141.09;;;27.86;90.15
72423;BME280;60413;55.658;37.498;2022-08-01T07:02:24;99123.97;;;27.47;91.57
72423;BME280;60413;55.658;37.498;2022-08-01T07:04:51;99173.28;;;27.56;93.16
72423;BME280;60413;55.658;37.498;2022-08-01T07:07:20;99166.47;;;26.70;99.09
72423;BME280;60413;55.658;37.498;2022-08-01T07:09:51;99128.41;;;25.82;100.00
72423;BME280;60413;55.658;37.498;2022-08-01T07:12:17;99174.44;;;25.73;100.00
72423;BME280;60413;55.658;37.498;2022-08-01T07:14:50;99106.56;;;25.87;100.00
72423;BME280;60413;55.658;37.498;2022-08-01T07:17:18;99115.72;;;26.79;100.00
72423;BME280;60413;55.658;37.498;2022-08-01T07:19:55;99116.47;;;27.40;97.43
72423;BME280;60413;55.658;37.498;2022-08-01T07:22:24;99149.34;;;26.94;99.21
72423;BME280;60413;55.658;37.498;2022-08-01T07:24:55;99129.63;;;26.50;100.00
72423;BME280;60413;55.658;37.498;2022-08-01T07:27:24;99142.63;;;26.32;100.00
72423;BME280;60413;55.658;37.498;2022-08-01T07:29:50;99145.72;;;26.05;100.00
72423;BME280;60413;55.658;37.498;2022-08-01T07:34:58;99105.22;;;25.93;100.00
72423;BME280;60413;55.658;37.498;2022-08-01T07:37:29;99109.84;;;26.33;100.00
72423;BME280;60413;55.658;37.498;2022-08-01T07:39:55;99157.31;;;27.03;100.00
72423;BME280;60413;55.658;37.498;2022-08-01T07:42:21;99111.66;;;26.86;100.00
72423;BME280;60413;55.658;37.498;2022-08-01T07:44:47;99114.69;;;26.84;100.00
72423;BME280;60413;55.658;37.498;2022-08-01T07:47:24;99122.38;;;26.82;100.00
72423;BME280;60413;55.658;37.498;2022-08-01T07:50:04;99137.75;;;27.10;100.00
72423;BME280;60413;55.658;37.498;2022-08-01T07:52:38;99124.78;;;26.71;100.00
72423;BME280;60413;55.658;37.498;2022-08-01T07:55:07;99102.16;;;26.92;97.52
72423;BME280;60413;55.658;37.498;2022-08-01T07:57:36;99093.88;;;27.68;94.73
72423;BME280;60413;55.658;37.498;2022-08-01T08:00:12;99122.13;;;27.86;95.27
72423;BME280;60413;55.658;37.498;2022-08-01T08:02:39;99140.47;;;28.68;89.29
72423;BME280;60413;55.658;37.498;2022-08-01T08:05:07;99138.56;;;29.14;83.00
72423;BME280;60413;55.658;37.498;2022-08-01T08:07:35;99135.97;;;29.71;75.54
72423;BME280;60413;55.658;37.498;2022-08-01T08:10:01;99118.41;;;29.65;70.75
72423;BME280;60413;55.658;37.498;2022-08-01T08:12:31;99127.38;;;29.92;69.67
72423;BME280;60413;55.658;37.498;2022-08-01T08:15:03;99143.34;;;29.98;69.47
72423;BME280;60413;55.658;37.498;2022-08-01T08:17:36;99152.53;;;30.20;70.47
72423;BME280;60413;55.658;37.498;2022-08-01T08:20:05;99124.84;;;29.04;79.39
72423;BME280;60413;55.658;37.498;2022-08-01T08:22:33;99136.03;;;29.02;78.81
72423;BME280;60413;55.658;37.498;2022-08-01T08:25:07;99110.41;;;28.99;80.71
72423;BME280;60413;55.658;37.498;2022-08-01T08:27:37;99148.19;;;29.58;71.07
72423;BME280;60413;55.658;37.498;2022-08-01T08:30:10;99148.00;;;29.44;69.68
72423;BME280;60413;55.658;37.498;2022-08-01T08:33:44;99100.09;;;28.62;73.01
72423;BME280;60413;55.658;37.498;2022-08-01T08:36:15;99111.50;;;28.33;76.13
72423;BME280;60413;55.658;37.498;2022-08-01T08:39:00;99113.06;;;28.73;75.34
72423;BME280;60413;55.658;37.498;2022-08-01T08:41:54;99102.97;;;29.43;67.92
72423;BME280;60413;55.658;37.498;2022-08-01T08:44:53;99143.78;;;29.77;67.07
72423;BME280;60413;55.658;37.498;2022-08-01T08:47:37;99078.25;;;28.78;70.32
72423;BME280;60413;55.658;37.498;2022-08-01T08:50:50;99137.25;;;28.42;74.28
72423;BME280;60413;55.658;37.498;2022-08-01T08:54:13;99079.66;;;27.35;78.28
72423;BME280;60413;55.658;37.498;2022-08-01T08:56:43;99093.50;;;27.85;78.17
72423;BME280;60413;55.658;37.498;2022-08-01T08:59:14;99105.09;;;28.21;79.34
72423;BME280;60413;55.658;37.498;2022-08-01T09:02:07;99086.09;;;28.41;80.42
72423;BME280;60413;55.658;37.498;2022-08-01T09:04:50;99099.22;;;29.24;73.76
72423;BME280;60413;55.658;37.498;2022-08-01T09:07:20;99097.50;;;28.70;68.16
72423;BME280;60413;55.658;37.498;2022-08-01T09:10:03;99108.41;;;28.73;69.33
72423;BME280;60413;55.658;37.498;2022-08-01T09:12:34;99115.63;;;28.46;72.96
72423;BME280;60413;55.658;37.498;2022-08-01T09:15:06;99091.84;;;27.13;78.27
72423;BME280;60413;55.658;37.498;2022-08-01T09:17:41;99099.47;;;26.35;76.95
72423;BME280;60413;55.658;37.498;2022-08-01T09:20:30;99054.84;;;25.85;81.84
72423;BME280;60413;55.658;37.498;2022-08-01T09:23:01;99068.69;;;25.83;84.24
72423;BME280;60413;55.658;37.498;2022-08-01T09:25:51;99061.56;;;26.32;82.85
72423;BME280;60413;55.658;37.498;2022-08-01T09:28:42;99054.28;;;26.48;82.00
72423;BME280;60413;55.658;37.498;2022-08-01T09:31:42;99061.47;;;25.87;81.93
72423;BME280;60413;55.658;37.498;2022-08-01T09:34:33;99062.94;;;25.85;72.89
72423;BME280;60413;55.658;37.498;2022-08-01T09:37:11;99053.88;;;26.18;72.24
72423;BME280;60413;55.658;37.498;2022-08-01T09:39:38;99085.19;;;26.63;69.49
72423;BME280;60413;55.658;37.498;2022-08-01T09:42:43;99096.09;;;26.38;71.34
72423;BME280;60413;55.658;37.498;2022-08-01T09:45:39;99065.69;;;26.41;76.01
72423;BME280;60413;55.658;37.498;2022-08-01T09:48:35;99092.22;;;26.23;76.81
72423;BME280;60413;55.658;37.498;2022-08-01T09:51:09;99090.19;;;26.77;73.33
72423;BME280;60413;55.658;37.498;2022-08-01T09:53:48;99036.13;;;26.77;72.93
72423;BME280;60413;55.658;37.498;2022-08-01T09:56:22;99060.13;;;27.81;73.36
72423;BME280;60413;55.658;37.498;2022-08-01T09:58:56;99105.28;;;28.94;70.63
72423;BME280;60413;55.658;37.498;2022-08-01T10:04:46;99095.56;;;29.40;63.28
72423;BME280;60413;55.658;37.498;2022-08-01T10:07:36;99050.25;;;29.44;64.25
72423;BME280;60413;55.658;37.498;2022-08-01T10:10:24;99095.81;;;29.58;62.75
72423;BME280;60413;55.658;37.498;2022-08-01T10:12:51;99036.13;;;29.08;62.41
72423;BME280;60413;55.658;37.498;2022-08-01T10:15:48;99068.69;;;29.08;63.33
72423;BME280;60413;55.658;37.498;2022-08-01T10:18:41;99060.97;;;28.87;67.33
72423;BME280;60413;55.658;37.498;2022-08-01T10:21:14;99084.78;;;28.74;67.08
72423;BME280;60413;55.658;37.498;2022-08-01T10:23:49;99050.13;;;28.21;67.95
72423;BME280;60413;55.658;37.498;2022-08-01T10:27:10;99043.88;;;28.59;66.83
72423;BME280;60413;55.658;37.498;2022-08-01T10:29:58;99066.44;;;29.13;65.52
72423;BME280;60413;55.658;37.498;2022-08-01T10:33:02;99039.16;;;29.02;66.00
72423;BME280;60413;55.658;37.498;2022-08-01T10:36:03;99036.75;;;28.97;62.63
72423;BME280;60413;55.658;37.498;2022-08-01T10:45:01;99047.91;;;28.92;66.92
72423;BME280;60413;55.658;37.498;2022-08-01T12:54:02;99027.16;;;25.88;89.98
72423;BME280;60413;55.658;37.498;2022-08-01T13:40:22;98946.66;;;23.72;100.00
72423;BME280;60413;55.658;37.498;2022-08-01T13:58:47;98990.09;;;24.03;98.33
72423;BME280;60413;55.658;37.498;2022-08-01T14:33:52;98965.91;;;25.23;92.04
72423;BME280;60413;55.658;37.498;2022-08-01T14:36:27;99011.22;;;25.30;91.77
72423;BME280;60413;55.658;37.498;2022-08-01T14:48:04;98964.25;;;24.82;95.61
72423;BME280;60413;55.658;37.498;2022-08-01T14:50:50;98941.56;;;24.70;96.91
72423;BME280;60413;55.658;37.498;2022-08-01T14:53:17;98980.06;;;24.58;98.41
72423;BME280;60413;55.658;37.498;2022-08-01T14:56:01;98974.84;;;24.53;98.56
72423;BME280;60413;55.658;37.498;2022-08-01T14:58:27;98959.06;;;24.06;99.93
72423;BME280;60413;55.658;37.498;2022-08-01T15:00:53;98946.00;;;23.96;100.00
72423;BME280;60413;55.658;37.498;2022-08-01T15:03:22;98994.75;;;24.15;100.00
72423;BME280;60413;55.658;37.498;2022-08-01T15:05:51;98936.22;;;23.70;100.00
72423;BME280;60413;55.658;37.498;2022-08-01T15:08:30;98933.81;;;23.77;100.00
72423;BME280;60413;55.658;37.498;2022-08-01T15:10:57;98994.59;;;24.33;100.00
72423;BME280;60413;55.658;37.498;2022-08-01T15:13:23;98988.16;;;24.25;100.00
72423;BME280;60413;55.658;37.498;2022-08-01T15:15:50;98942.31;;;24.00;100.00
72423;BME280;60413;55.658;37.498;2022-08-01T15:18:59;98960.50;;;24.03;100.00
72423;BME280;60413;55.658;37.498;2022-08-01T15:21:24;98939.00;;;23.82;100.00
72423;BME280;60413;55.658;37.498;2022-08-01T15:23:51;98985.59;;;23.95;100.00
72423;BME280;60413;55.658;37.498;2022-08-01T15:26:17;98950.06;;;23.81;100.00
72423;BME280;60413;55.658;37.498;2022-08-01T15:28:46;98975.28;;;23.76;100.00
72423;BME280;60413;55.658;37.498;2022-08-01T15:31:12;98961.91;;;23.89;100.00
72423;BME280;60413;55.658;37.498;2022-08-01T15:33:40;98931.72;;;23.62;100.00
72423;BME280;60413;55.658;37.498;2022-08-01T15:36:11;98944.31;;;23.70;100.00
72423;BME280;60413;55.658;37.498;2022-08-01T15:38:42;98973.91;;;23.91;100.00
72423;BME280;60413;55.658;37.498;2022-08-01T15:41:16;98964.63;;;23.80;100.00
72423;BME280;60413;55.658;37.498;2022-08-01T15:43:44;98925.19;;;23.51;100.00
72423;BME280;60413;55.658;37.498;2022-08-01T15:46:14;98920.50;;;23.60;100.00
72423;BME280;60413;55.658;37.498;2022-08-01T15:48:51;98922.53;;;23.63;100.00
72423;BME280;60413;55.658;37.498;2022-08-01T15:51:28;98936.03;;;23.75;100.00
72423;BME280;60413;55.658;37.498;2022-08-01T15:54:01;98943.00;;;23.76;100.00
72423;BME280;60413;55.658;37.498;2022-08-01T15:56:46;98914.66;;;23.58;100.00
72423;BME280;60413;55.658;37.498;2022-08-01T15:59:59;98938.41;;;23.56;100.00
72423;BME280;60413;55.658;37.498;2022-08-01T16:03:31;98963.53;;;23.60;100.00
72423;BME280;60413;55.658;37.498;2022-08-01T16:06:17;98954.28;;;23.70;100.00
72423;BME280;60413;55.658;37.498;2022-08-01T16:08:44;98944.94;;;23.67;100.00
72423;BME280;60413;55.658;37.498;2022-08-01T16:11:34;98928.31;;;23.53;100.00
72423;BME280;60413;55.658;37.498;2022-08-01T16:14:12;98954.28;;;23.70;100.00
72423;BME280;60413;55.658;37.498;2022-08-01T16:16:54;98917.22;;;23.33;100.00
72423;BME280;60413;55.658;37.498;2022-08-01T16:19:33;98960.59;;;23.53;100.00
72423;BME280;60413;55.658;37.498;2022-08-01T16:22:03;98960.19;;;23.42;100.00
72423;BME280;60413;55.658;37.498;2022-08-01T16:24:32;98941.69;;;23.19;100.00
72423;BME280;60413;55.658;37.498;2022-08-01T16:27:05;98975.59;;;23.33;100.00
72423;BME280;60413;55.658;37.498;2022-08-01T16:29:32;98943.34;;;23.03;100.00
72423;BME280;60413;55.658;37.498;2022-08-01T16:32:09;98986.75;;;23.22;100.00
72423;BME280;60413;55.658;37.498;2022-08-01T16:38:12;98948.91;;;22.98;100.00
72423;BME280;60413;55.658;37.498;2022-08-01T16:40:43;98952.88;;;22.91;100.00
72423;BME280;60413;55.658;37.498;2022-08-01T16:43:13;98944.22;;;22.86;100.00
72423;BME280;60413;55.658;37.498;2022-08-01T16:48:49;98929.00;;;22.60;100.00
72423;BME280;60413;55.658;37.498;2022-08-01T16:51:42;98987.22;;;22.86;100.00
72423;BME280;60413;55.658;37.498;2022-08-01T16:54:20;98929.41;;;22.41;100.00
72423;BME280;60413;55.658;37.498;2022-08-01T16:56:54;98997.38;;;22.71;100.00
72423;BME280;60413;55.658;37.498;2022-08-01T16:59:33;98952.16;;;22.35;100.00
72423;BME280;60413;55.658;37.498;2022-08-01T17:02:06;98931.97;;;22.11;100.00
72423;BME280;60413;55.658;37.498;2022-08-01T17:04:45;98993.06;;;22.41;100.00
72423;BME280;60413;55.658;37.498;2022-08-01T17:07:46;98957.88;;;22.07;100.00
72423;BME280;60413;55.658;37.498;2022-08-01T17:10:34;98958.84;;;22.02;100.00
72423;BME280;60413;55.658;37.498;2022-08-01T17:13:38;98973.19;;;22.07;100.00
72423;BME280;60413;55.658;37.498;2022-08-01T17:19:27;98951.44;;;21.82;100.00
72423;BME280;60413;55.658;37.498;2022-08-01T17:22:23;98956.47;;;21.75;100.00
72423;BME280;60413;55.658;37.498;2022-08-01T17:24:57;98963.41;;;21.58;100.00
72423;BME280;60413;55.658;37.498;2022-08-01T17:27:45;98937.66;;;21.40;100.00
72423;BME280;60413;55.658;37.498;2022-08-01T17:30:53;98991.34;;;21.75;100.00
72423;BME280;60413;55.658;37.498;2022-08-01T17:33:42;98933.44;;;21.39;100.00
72423;BME280;60413;55.658;37.498;2022-08-01T17:36:19;98974.63;;;21.60;100.00
72423;BME280;60413;55.658;37.498;2022-08-01T17:38:46;98938.28;;;21.28;100.00
72423;BME280;60413;55.658;37.498;2022-08-01T17:41:12;98971.16;;;21.51;100.00